<?xml version="1.0" encoding="UTF-8"?>
<gpx creator="Garmin Connect" version="1.1" schemaLocation="http://www.topografix.com/GPX/1/1 http://www.topografix.com/GPX/11.xsd" xmlns="http://www.topografix.com/GPX/1/1" xmlns:xsi="http://www.w3.org/2001/XMLSchema-instance" xsi:schemaLocation="http://www.topografix.com/GPX/1/1 http://www.topografix.com/GPX/1/1/gpx.xsd http://www.garmin.com/xmlschemas/GpxExtensions/v3 http://www.garmin.com/xmlschemas/GpxExtensionsv3.xsd http://www.garmin.com/xmlschemas/TrackPointExtension/v1 http://www.garmin.com/xmlschemas/TrackPointExtensionv1.xsd http://www.garmin.com/xmlschemas/PowerExtension/v1 http://www.garmin.com/xmlschemas/PowerExtensionv1.xsd http://www.topografix.com/GPX/gpx_style/0/2 http://www.topografix.com/GPX/gpx_style/0/2/gpx_style.xsd" xmlns:gpxtpx="http://www.garmin.com/xmlschemas/TrackPointExtension/v1" xmlns:gpxx="http://www.garmin.com/xmlschemas/GpxExtensions/v3" xmlns:gpxpx="http://www.garmin.com/xmlschemas/PowerExtension/v1" xmlns:gpx_style="http://www.topografix.com/GPX/gpx_style/0/2">
  <metadata>
    <name>Les Hauts Noirs_11kms</name>
    <author>
      <name>gpx.studio</name>
      <link href="https://gpx.studio"/>
    </author>
    <link href="connect.garmin.com">
      <text>Garmin Connect</text>
    </link>
    <time>2021-10-23T20:18:16.000Z</time>
  </metadata>
  <trk>
    <name>Sans titre</name>
    <trkseg>
      <trkpt lat="47.599174841478714" lon="2.0236027691861125">
        <ele>109.57473322930772</ele>
        <time>2021-10-23T20:17:52.653Z</time>
      </trkpt>
      <trkpt lat="47.59876678974416" lon="2.0233226177493453">
        <ele>109.34341036681435</ele>
        <time>2021-10-23T20:17:56.701Z</time>
      </trkpt>
      <trkpt lat="47.59835873800961" lon="2.0230424663125777">
        <ele>111.28333310771362</ele>
        <time>2021-10-23T20:18:00.749Z</time>
      </trkpt>
      <trkpt lat="47.597950686275055" lon="2.0227623148758105">
        <ele>111.0654603140666</ele>
        <time>2021-10-23T20:18:04.797Z</time>
      </trkpt>
      <trkpt lat="47.5975426345405" lon="2.022482163439043">
        <ele>110.03749221083721</ele>
        <time>2021-10-23T20:18:08.845Z</time>
      </trkpt>
      <trkpt lat="47.59746997746231" lon="2.0224322800955292">
        <ele>110.09561051838135</ele>
        <time>2021-10-23T20:18:09.565Z</time>
      </trkpt>
      <trkpt lat="47.59721740029059" lon="2.022010904021755">
        <ele>111.44619690887635</ele>
        <time>2021-10-23T20:18:12.988Z</time>
      </trkpt>
      <trkpt lat="47.59721740029059" lon="2.022010904021755">
        <ele>111.44619690887635</ele>
        <time>2021-10-23T20:18:12.988Z</time>
      </trkpt>
      <trkpt lat="47.59715410709312" lon="2.0213507263815953">
        <ele>111.7369623388814</ele>
        <time>2021-10-23T20:18:16.986Z</time>
      </trkpt>
      <trkpt lat="47.597134" lon="2.021141">
        <ele>110.99740650234745</ele>
        <time>2021-10-23T20:18:18.254Z</time>
      </trkpt>
      <trkpt lat="47.597134" lon="2.021141">
        <ele>111.55829742175727</ele>
        <time>2021-10-23T20:18:18.254Z</time>
      </trkpt>
      <trkpt lat="47.597088" lon="2.021139">
        <ele>111.61273656319298</ele>
        <time>2021-10-23T20:18:18.552Z</time>
      </trkpt>
      <trkpt lat="47.597008" lon="2.021168">
        <ele>111.66249601844942</ele>
        <time>2021-10-23T20:18:18.822Z</time>
      </trkpt>
      <trkpt lat="47.596905" lon="2.0212367">
        <ele>111.71225222846368</ele>
        <time>2021-10-23T20:18:19.107Z</time>
      </trkpt>
      <trkpt lat="47.596725" lon="2.021325">
        <ele>111.76222322408015</ele>
        <time>2021-10-23T20:18:19.418Z</time>
      </trkpt>
      <trkpt lat="47.59671" lon="2.0213416">
        <ele>111.80239498258828</ele>
        <time>2021-10-23T20:18:19.731Z</time>
      </trkpt>
      <trkpt lat="47.596714" lon="2.021382">
        <ele>111.84349316170406</ele>
        <time>2021-10-23T20:18:20.048Z</time>
      </trkpt>
      <trkpt lat="47.596695" lon="2.0213697">
        <ele>111.87769281227534</ele>
        <time>2021-10-23T20:18:20.368Z</time>
      </trkpt>
      <trkpt lat="47.596584" lon="2.0214036">
        <ele>111.9517079130835</ele>
        <time>2021-10-23T20:18:20.703Z</time>
      </trkpt>
      <trkpt lat="47.596443" lon="2.0214865">
        <ele>112.0191536081264</ele>
        <time>2021-10-23T20:18:21.058Z</time>
      </trkpt>
      <trkpt lat="47.59632" lon="2.0215068">
        <ele>112.07381002418707</ele>
        <time>2021-10-23T20:18:21.429Z</time>
      </trkpt>
      <trkpt lat="47.5963" lon="2.0215306">
        <ele>112.114879113006</ele>
        <time>2021-10-23T20:18:21.804Z</time>
      </trkpt>
      <trkpt lat="47.596237" lon="2.0215404">
        <ele>112.16005568661002</ele>
        <time>2021-10-23T20:18:22.187Z</time>
      </trkpt>
      <trkpt lat="47.59617" lon="2.0215843">
        <ele>112.20227121757341</ele>
        <time>2021-10-23T20:18:22.580Z</time>
      </trkpt>
      <trkpt lat="47.59603" lon="2.0216408">
        <ele>112.25319143816375</ele>
        <time>2021-10-23T20:18:22.992Z</time>
      </trkpt>
      <trkpt lat="47.59571" lon="2.0216994">
        <ele>112.31656839966051</ele>
        <time>2021-10-23T20:18:23.447Z</time>
      </trkpt>
      <trkpt lat="47.59565" lon="2.0217335">
        <ele>112.37129058219793</ele>
        <time>2021-10-23T20:18:23.911Z</time>
      </trkpt>
      <trkpt lat="47.595615" lon="2.0217323">
        <ele>112.44011010048669</ele>
        <time>2021-10-23T20:18:24.380Z</time>
      </trkpt>
      <trkpt lat="47.595383" lon="2.0218112">
        <ele>112.52610233126003</ele>
        <time>2021-10-23T20:18:24.880Z</time>
      </trkpt>
      <trkpt lat="47.59529" lon="2.0218155">
        <ele>112.63021474829685</ele>
        <time>2021-10-23T20:18:25.393Z</time>
      </trkpt>
      <trkpt lat="47.595226" lon="2.021843">
        <ele>112.74681895128664</ele>
        <time>2021-10-23T20:18:25.915Z</time>
      </trkpt>
      <trkpt lat="47.595066" lon="2.0218635">
        <ele>112.89798196337416</ele>
        <time>2021-10-23T20:18:26.458Z</time>
      </trkpt>
      <trkpt lat="47.59496" lon="2.021864">
        <ele>113.07496983241052</ele>
        <time>2021-10-23T20:18:27.015Z</time>
      </trkpt>
      <trkpt lat="47.5948" lon="2.021926">
        <ele>113.27459511749021</ele>
        <time>2021-10-23T20:18:27.594Z</time>
      </trkpt>
      <trkpt lat="47.59452" lon="2.0219638">
        <ele>113.52714269818645</ele>
        <time>2021-10-23T20:18:28.211Z</time>
      </trkpt>
      <trkpt lat="47.59443" lon="2.0219913">
        <ele>113.80517336785498</ele>
        <time>2021-10-23T20:18:28.840Z</time>
      </trkpt>
      <trkpt lat="47.59436" lon="2.0220392">
        <ele>114.11188326663415</ele>
        <time>2021-10-23T20:18:29.479Z</time>
      </trkpt>
      <trkpt lat="47.594265" lon="2.022007">
        <ele>114.46649903358951</ele>
        <time>2021-10-23T20:18:30.131Z</time>
      </trkpt>
      <trkpt lat="47.594185" lon="2.0218601">
        <ele>114.86467839336052</ele>
        <time>2021-10-23T20:18:30.801Z</time>
      </trkpt>
      <trkpt lat="47.594154" lon="2.0216749">
        <ele>115.28765282845657</ele>
        <time>2021-10-23T20:18:31.488Z</time>
      </trkpt>
      <trkpt lat="47.594143" lon="2.0212">
        <ele>115.80607302696941</ele>
        <time>2021-10-23T20:18:32.218Z</time>
      </trkpt>
      <trkpt lat="47.594097" lon="2.0206845">
        <ele>116.3735766361433</ele>
        <time>2021-10-23T20:18:32.995Z</time>
      </trkpt>
      <trkpt lat="47.59412" lon="2.0204692">
        <ele>116.87585505597181</ele>
        <time>2021-10-23T20:18:33.791Z</time>
      </trkpt>
      <trkpt lat="47.594116" lon="2.0203166">
        <ele>117.38900936001042</ele>
        <time>2021-10-23T20:18:34.601Z</time>
      </trkpt>
      <trkpt lat="47.594093" lon="2.0201454">
        <ele>117.91800413678365</ele>
        <time>2021-10-23T20:18:35.427Z</time>
      </trkpt>
      <trkpt lat="47.594097" lon="2.0200028">
        <ele>118.44661255179416</ele>
        <time>2021-10-23T20:18:36.266Z</time>
      </trkpt>
      <trkpt lat="47.594074" lon="2.0199594">
        <ele>118.97538071305746</ele>
        <time>2021-10-23T20:18:37.110Z</time>
      </trkpt>
      <trkpt lat="47.59387" lon="2.019755">
        <ele>119.58850649839374</ele>
        <time>2021-10-23T20:18:37.986Z</time>
      </trkpt>
      <trkpt lat="47.593773" lon="2.0196846">
        <ele>120.14875093711768</ele>
        <time>2021-10-23T20:18:38.877Z</time>
      </trkpt>
      <trkpt lat="47.593735" lon="2.0196111">
        <ele>120.69026848105766</ele>
        <time>2021-10-23T20:18:39.776Z</time>
      </trkpt>
      <trkpt lat="47.593643" lon="2.0195763">
        <ele>121.21778059800951</ele>
        <time>2021-10-23T20:18:40.688Z</time>
      </trkpt>
      <trkpt lat="47.593502" lon="2.0194495">
        <ele>121.76338948466747</ele>
        <time>2021-10-23T20:18:41.622Z</time>
      </trkpt>
      <trkpt lat="47.59337" lon="2.0192492">
        <ele>122.30600424067998</ele>
        <time>2021-10-23T20:18:42.581Z</time>
      </trkpt>
      <trkpt lat="47.59323" lon="2.0191195">
        <ele>122.76738367994727</ele>
        <time>2021-10-23T20:18:43.562Z</time>
      </trkpt>
      <trkpt lat="47.593155" lon="2.01901">
        <ele>123.18895384442277</ele>
        <time>2021-10-23T20:18:44.557Z</time>
      </trkpt>
      <trkpt lat="47.593117" lon="2.018921">
        <ele>123.89052396202781</ele>
        <time>2021-10-23T20:18:45.562Z</time>
      </trkpt>
      <trkpt lat="47.592976" lon="2.0187366">
        <ele>124.20862334558713</ele>
        <time>2021-10-23T20:18:46.592Z</time>
      </trkpt>
      <trkpt lat="47.5928" lon="2.0185602">
        <ele>124.4786059039534</ele>
        <time>2021-10-23T20:18:47.650Z</time>
      </trkpt>
      <trkpt lat="47.59271" lon="2.0184898">
        <ele>124.6826749264666</ele>
        <time>2021-10-23T20:18:48.722Z</time>
      </trkpt>
      <trkpt lat="47.592487" lon="2.01838">
        <ele>124.83827678794222</ele>
        <time>2021-10-23T20:18:49.825Z</time>
      </trkpt>
      <trkpt lat="47.592407" lon="2.018301">
        <ele>124.95038523871264</ele>
        <time>2021-10-23T20:18:50.941Z</time>
      </trkpt>
      <trkpt lat="47.59234" lon="2.0182793">
        <ele>125.00692469699702</ele>
        <time>2021-10-23T20:18:52.066Z</time>
      </trkpt>
      <trkpt lat="47.59227" lon="2.0182045">
        <ele>125.03381205225108</ele>
        <time>2021-10-23T20:18:53.203Z</time>
      </trkpt>
      <trkpt lat="47.59215" lon="2.0181918">
        <ele>125.00051318755462</ele>
        <time>2021-10-23T20:18:54.356Z</time>
      </trkpt>
      <trkpt lat="47.591892" lon="2.0180035">
        <ele>124.94088740629601</ele>
        <time>2021-10-23T20:18:55.547Z</time>
      </trkpt>
      <trkpt lat="47.591827" lon="2.0179806">
        <ele>124.8567287776124</ele>
        <time>2021-10-23T20:18:56.747Z</time>
      </trkpt>
      <trkpt lat="47.591743" lon="2.0179126">
        <ele>124.7510859160828</ele>
        <time>2021-10-23T20:18:57.960Z</time>
      </trkpt>
      <trkpt lat="47.591633" lon="2.0178661">
        <ele>124.61310846409157</ele>
        <time>2021-10-23T20:18:59.188Z</time>
      </trkpt>
      <trkpt lat="47.591545" lon="2.0177896">
        <ele>124.4641847726123</ele>
        <time>2021-10-23T20:19:00.430Z</time>
      </trkpt>
      <trkpt lat="47.591488" lon="2.0177765">
        <ele>124.29097510917684</ele>
        <time>2021-10-23T20:19:01.679Z</time>
      </trkpt>
      <trkpt lat="47.591434" lon="2.0177414">
        <ele>124.10636780907552</ele>
        <time>2021-10-23T20:19:02.936Z</time>
      </trkpt>
      <trkpt lat="47.591373" lon="2.017666">
        <ele>123.91385665914265</ele>
        <time>2021-10-23T20:19:04.204Z</time>
      </trkpt>
      <trkpt lat="47.591152" lon="2.017522">
        <ele>123.69180466991051</ele>
        <time>2021-10-23T20:19:05.504Z</time>
      </trkpt>
      <trkpt lat="47.591003" lon="2.0174773">
        <ele>123.45406309782823</ele>
        <time>2021-10-23T20:19:06.824Z</time>
      </trkpt>
      <trkpt lat="47.590885" lon="2.0174222">
        <ele>123.2156623406842</ele>
        <time>2021-10-23T20:19:08.161Z</time>
      </trkpt>
      <trkpt lat="47.59077" lon="2.0173314">
        <ele>122.96999045232658</ele>
        <time>2021-10-23T20:19:09.515Z</time>
      </trkpt>
      <trkpt lat="47.590675" lon="2.0172768">
        <ele>122.71156441328569</ele>
        <time>2021-10-23T20:19:10.883Z</time>
      </trkpt>
      <trkpt lat="47.59063" lon="2.0172687">
        <ele>122.4545194898019</ele>
        <time>2021-10-23T20:19:12.257Z</time>
      </trkpt>
      <trkpt lat="47.590458" lon="2.017153">
        <ele>122.17875078217027</ele>
        <time>2021-10-23T20:19:13.656Z</time>
      </trkpt>
      <trkpt lat="47.590378" lon="2.0171316">
        <ele>121.91352647200061</ele>
        <time>2021-10-23T20:19:15.066Z</time>
      </trkpt>
      <trkpt lat="47.590282" lon="2.0170786">
        <ele>121.65773616006551</ele>
        <time>2021-10-23T20:19:16.490Z</time>
      </trkpt>
      <trkpt lat="47.590004" lon="2.01685">
        <ele>121.3915781865542</ele>
        <time>2021-10-23T20:19:17.956Z</time>
      </trkpt>
      <trkpt lat="47.58993" lon="2.016764">
        <ele>121.18705035926561</ele>
        <time>2021-10-23T20:19:19.435Z</time>
      </trkpt>
      <trkpt lat="47.589638" lon="2.0165014">
        <ele>120.99530216969859</ele>
        <time>2021-10-23T20:19:20.959Z</time>
      </trkpt>
      <trkpt lat="47.589527" lon="2.016448">
        <ele>120.78287849733806</ele>
        <time>2021-10-23T20:19:22.499Z</time>
      </trkpt>
      <trkpt lat="47.58884" lon="2.0157204">
        <ele>120.63128799643313</ele>
        <time>2021-10-23T20:19:24.152Z</time>
      </trkpt>
      <trkpt lat="47.588795" lon="2.0157137">
        <ele>120.42458987263217</ele>
        <time>2021-10-23T20:19:25.811Z</time>
      </trkpt>
      <trkpt lat="47.588726" lon="2.0156612">
        <ele>120.22520726990759</ele>
        <time>2021-10-23T20:19:27.480Z</time>
      </trkpt>
      <trkpt lat="47.588673" lon="2.0156426">
        <ele>120.02648461927066</ele>
        <time>2021-10-23T20:19:29.156Z</time>
      </trkpt>
      <trkpt lat="47.588486" lon="2.0156136">
        <ele>119.78663065550808</ele>
        <time>2021-10-23T20:19:30.857Z</time>
      </trkpt>
      <trkpt lat="47.588375" lon="2.0155525">
        <ele>119.59273044366216</ele>
        <time>2021-10-23T20:19:32.574Z</time>
      </trkpt>
      <trkpt lat="47.58835" lon="2.0155525">
        <ele>119.42538088822235</ele>
        <time>2021-10-23T20:19:34.295Z</time>
      </trkpt>
      <trkpt lat="47.588215" lon="2.0154657">
        <ele>119.29235455903239</ele>
        <time>2021-10-23T20:19:36.035Z</time>
      </trkpt>
      <trkpt lat="47.588085" lon="2.015442">
        <ele>119.15825679175097</ele>
        <time>2021-10-23T20:19:37.793Z</time>
      </trkpt>
      <trkpt lat="47.587822" lon="2.0153167">
        <ele>119.05771415730209</ele>
        <time>2021-10-23T20:19:39.588Z</time>
      </trkpt>
      <trkpt lat="47.58752" lon="2.0152433">
        <ele>118.95881955309414</ele>
        <time>2021-10-23T20:19:41.423Z</time>
      </trkpt>
      <trkpt lat="47.587307" lon="2.015147">
        <ele>118.87765146587782</ele>
        <time>2021-10-23T20:19:43.288Z</time>
      </trkpt>
      <trkpt lat="47.587173" lon="2.0151412">
        <ele>118.81108573067789</ele>
        <time>2021-10-23T20:19:45.171Z</time>
      </trkpt>
      <trkpt lat="47.5868" lon="2.0149474">
        <ele>118.78165661389083</ele>
        <time>2021-10-23T20:19:47.107Z</time>
      </trkpt>
      <trkpt lat="47.586605" lon="2.0148966">
        <ele>118.78297421038587</ele>
        <time>2021-10-23T20:19:49.069Z</time>
      </trkpt>
      <trkpt lat="47.586487" lon="2.0148337">
        <ele>118.8374898950171</ele>
        <time>2021-10-23T20:19:51.048Z</time>
      </trkpt>
      <trkpt lat="47.586422" lon="2.014828">
        <ele>118.92375463445725</ele>
        <time>2021-10-23T20:19:53.036Z</time>
      </trkpt>
      <trkpt lat="47.586308" lon="2.0147796">
        <ele>119.05210678916833</ele>
        <time>2021-10-23T20:19:55.039Z</time>
      </trkpt>
      <trkpt lat="47.586258" lon="2.014745">
        <ele>119.43031553668865</ele>
        <time>2021-10-23T20:19:57.050Z</time>
      </trkpt>
      <trkpt lat="47.58595" lon="2.0147083">
        <ele>119.65254269556775</ele>
        <time>2021-10-23T20:19:59.102Z</time>
      </trkpt>
      <trkpt lat="47.58581" lon="2.014615">
        <ele>119.9451582223838</ele>
        <time>2021-10-23T20:20:01.174Z</time>
      </trkpt>
      <trkpt lat="47.585655" lon="2.0145671">
        <ele>120.28917626417419</ele>
        <time>2021-10-23T20:20:03.268Z</time>
      </trkpt>
      <trkpt lat="47.5855" lon="2.0144532">
        <ele>120.66672002224531</ele>
        <time>2021-10-23T20:20:05.385Z</time>
      </trkpt>
      <trkpt lat="47.585327" lon="2.014375">
        <ele>121.05320577405013</ele>
        <time>2021-10-23T20:20:07.526Z</time>
      </trkpt>
      <trkpt lat="47.58505" lon="2.0141463">
        <ele>121.49585229513994</ele>
        <time>2021-10-23T20:20:09.709Z</time>
      </trkpt>
      <trkpt lat="47.58495" lon="2.0140877">
        <ele>121.85146892522674</ele>
        <time>2021-10-23T20:20:11.906Z</time>
      </trkpt>
      <trkpt lat="47.584854" lon="2.014068">
        <ele>122.18275094057992</ele>
        <time>2021-10-23T20:20:14.116Z</time>
      </trkpt>
      <trkpt lat="47.584743" lon="2.0139573">
        <ele>122.48954466895862</ele>
        <time>2021-10-23T20:20:16.344Z</time>
      </trkpt>
      <trkpt lat="47.5846" lon="2.0139146">
        <ele>122.767097303213</ele>
        <time>2021-10-23T20:20:18.592Z</time>
      </trkpt>
      <trkpt lat="47.58449" lon="2.013904">
        <ele>122.99647741918079</ele>
        <time>2021-10-23T20:20:20.854Z</time>
      </trkpt>
      <trkpt lat="47.5843" lon="2.0137808">
        <ele>123.1928890118532</ele>
        <time>2021-10-23T20:20:23.144Z</time>
      </trkpt>
      <trkpt lat="47.584145" lon="2.013724">
        <ele>123.32040663185242</ele>
        <time>2021-10-23T20:20:25.455Z</time>
      </trkpt>
      <trkpt lat="47.58402" lon="2.0135965">
        <ele>123.36263613677617</ele>
        <time>2021-10-23T20:20:27.787Z</time>
      </trkpt>
      <trkpt lat="47.58395" lon="2.013581">
        <ele>123.35472129292202</ele>
        <time>2021-10-23T20:20:30.128Z</time>
      </trkpt>
      <trkpt lat="47.58387" lon="2.0135434">
        <ele>123.29210889300738</ele>
        <time>2021-10-23T20:20:32.480Z</time>
      </trkpt>
      <trkpt lat="47.583805" lon="2.0134873">
        <ele>123.18008969074481</ele>
        <time>2021-10-23T20:20:34.842Z</time>
      </trkpt>
      <trkpt lat="47.583687" lon="2.013457">
        <ele>123.01676705856084</ele>
        <time>2021-10-23T20:20:37.220Z</time>
      </trkpt>
      <trkpt lat="47.58358" lon="2.0133958">
        <ele>122.81390568388278</ele>
        <time>2021-10-23T20:20:39.614Z</time>
      </trkpt>
      <trkpt lat="47.58344" lon="2.0133743">
        <ele>122.57180214969648</ele>
        <time>2021-10-23T20:20:42.026Z</time>
      </trkpt>
      <trkpt lat="47.583275" lon="2.0133135">
        <ele>122.28875094148432</ele>
        <time>2021-10-23T20:20:44.461Z</time>
      </trkpt>
      <trkpt lat="47.58318" lon="2.0133057">
        <ele>121.99640909186652</ele>
        <time>2021-10-23T20:20:46.909Z</time>
      </trkpt>
      <trkpt lat="47.58304" lon="2.0132241">
        <ele>121.68573857215634</ele>
        <time>2021-10-23T20:20:49.377Z</time>
      </trkpt>
      <trkpt lat="47.582905" lon="2.013205">
        <ele>121.37941633829722</ele>
        <time>2021-10-23T20:20:51.863Z</time>
      </trkpt>
      <trkpt lat="47.58267" lon="2.013119">
        <ele>121.05047315205366</ele>
        <time>2021-10-23T20:20:54.381Z</time>
      </trkpt>
      <trkpt lat="47.582596" lon="2.0130749">
        <ele>120.80292119711653</ele>
        <time>2021-10-23T20:20:56.910Z</time>
      </trkpt>
      <trkpt lat="47.58246" lon="2.0130453">
        <ele>120.59899906056035</ele>
        <time>2021-10-23T20:20:59.457Z</time>
      </trkpt>
      <trkpt lat="47.582355" lon="2.0130503">
        <ele>120.4741027820002</ele>
        <time>2021-10-23T20:21:02.018Z</time>
      </trkpt>
      <trkpt lat="47.58213" lon="2.0129585">
        <ele>120.39205329744064</ele>
        <time>2021-10-23T20:21:04.610Z</time>
      </trkpt>
      <trkpt lat="47.582073" lon="2.0129657">
        <ele>120.36510235024913</ele>
        <time>2021-10-23T20:21:07.210Z</time>
      </trkpt>
      <trkpt lat="47.581963" lon="2.0129478">
        <ele>120.39164309978503</ele>
        <time>2021-10-23T20:21:09.825Z</time>
      </trkpt>
      <trkpt lat="47.581753" lon="2.0128865">
        <ele>120.47187524639394</ele>
        <time>2021-10-23T20:21:12.468Z</time>
      </trkpt>
      <trkpt lat="47.581696" lon="2.012888">
        <ele>120.5996895705633</ele>
        <time>2021-10-23T20:21:15.119Z</time>
      </trkpt>
      <trkpt lat="47.581524" lon="2.012828">
        <ele>120.81638867571442</ele>
        <time>2021-10-23T20:21:17.794Z</time>
      </trkpt>
      <trkpt lat="47.581486" lon="2.0128322">
        <ele>121.03965591635522</ele>
        <time>2021-10-23T20:21:20.474Z</time>
      </trkpt>
      <trkpt lat="47.58137" lon="2.0128005">
        <ele>121.31846741203722</ele>
        <time>2021-10-23T20:21:23.169Z</time>
      </trkpt>
      <trkpt lat="47.581276" lon="2.0128055">
        <ele>121.62141865535172</ele>
        <time>2021-10-23T20:21:25.877Z</time>
      </trkpt>
      <trkpt lat="47.581154" lon="2.0127487">
        <ele>121.93403416998697</ele>
        <time>2021-10-23T20:21:28.602Z</time>
      </trkpt>
      <trkpt lat="47.580845" lon="2.0127103">
        <ele>122.2595237162902</ele>
        <time>2021-10-23T20:21:31.368Z</time>
      </trkpt>
      <trkpt lat="47.580723" lon="2.0126462">
        <ele>122.5816109745725</ele>
        <time>2021-10-23T20:21:34.152Z</time>
      </trkpt>
      <trkpt lat="47.58062" lon="2.0126297">
        <ele>122.88831521295464</ele>
        <time>2021-10-23T20:21:36.950Z</time>
      </trkpt>
      <trkpt lat="47.58057" lon="2.0126035">
        <ele>123.17151067968348</ele>
        <time>2021-10-23T20:21:39.755Z</time>
      </trkpt>
      <trkpt lat="47.5804" lon="2.0126135">
        <ele>123.45264651074856</ele>
        <time>2021-10-23T20:21:42.582Z</time>
      </trkpt>
      <trkpt lat="47.58034" lon="2.012587">
        <ele>123.690016572551</ele>
        <time>2021-10-23T20:21:45.418Z</time>
      </trkpt>
      <trkpt lat="47.580254" lon="2.0125914">
        <ele>123.8978639792978</ele>
        <time>2021-10-23T20:21:48.265Z</time>
      </trkpt>
      <trkpt lat="47.580147" lon="2.0125396">
        <ele>124.07961937237198</ele>
        <time>2021-10-23T20:21:51.127Z</time>
      </trkpt>
      <trkpt lat="47.58007" lon="2.0125303">
        <ele>124.21393102666528</ele>
        <time>2021-10-23T20:21:53.999Z</time>
      </trkpt>
      <trkpt lat="47.579933" lon="2.0124698">
        <ele>124.30236123600307</ele>
        <time>2021-10-23T20:21:56.891Z</time>
      </trkpt>
      <trkpt lat="47.579807" lon="2.0124526">
        <ele>124.33306325313254</ele>
        <time>2021-10-23T20:21:59.799Z</time>
      </trkpt>
      <trkpt lat="47.57973" lon="2.0124042">
        <ele>124.32860771129646</ele>
        <time>2021-10-23T20:22:02.719Z</time>
      </trkpt>
      <trkpt lat="47.579643" lon="2.0123935">
        <ele>124.28715330187822</ele>
        <time>2021-10-23T20:22:05.650Z</time>
      </trkpt>
      <trkpt lat="47.579464" lon="2.0123305">
        <ele>124.19293323443628</ele>
        <time>2021-10-23T20:22:08.606Z</time>
      </trkpt>
      <trkpt lat="47.579372" lon="2.0123272">
        <ele>124.09906229856799</ele>
        <time>2021-10-23T20:22:11.574Z</time>
      </trkpt>
      <trkpt lat="47.579166" lon="2.0122826">
        <ele>123.9697132301053</ele>
        <time>2021-10-23T20:22:14.570Z</time>
      </trkpt>
      <trkpt lat="47.579063" lon="2.012241">
        <ele>123.74721374683338</ele>
        <time>2021-10-23T20:22:17.580Z</time>
      </trkpt>
      <trkpt lat="47.57892" lon="2.0122533">
        <ele>123.63776341219906</ele>
        <time>2021-10-23T20:22:20.609Z</time>
      </trkpt>
      <trkpt lat="47.578728" lon="2.0121922">
        <ele>123.51364945986548</ele>
        <time>2021-10-23T20:22:23.664Z</time>
      </trkpt>
      <trkpt lat="47.578503" lon="2.0121608">
        <ele>123.39716589705256</ele>
        <time>2021-10-23T20:22:26.750Z</time>
      </trkpt>
      <trkpt lat="47.578354" lon="2.0121076">
        <ele>123.29412606359412</ele>
        <time>2021-10-23T20:22:29.856Z</time>
      </trkpt>
      <trkpt lat="47.578236" lon="2.0121143">
        <ele>123.19017032575934</ele>
        <time>2021-10-23T20:22:32.978Z</time>
      </trkpt>
      <trkpt lat="47.57808" lon="2.0120752">
        <ele>123.10417551050287</ele>
        <time>2021-10-23T20:22:36.121Z</time>
      </trkpt>
      <trkpt lat="47.57803" lon="2.0120764">
        <ele>123.07095037908852</ele>
        <time>2021-10-23T20:22:39.271Z</time>
      </trkpt>
      <trkpt lat="47.577873" lon="2.012019">
        <ele>123.02987141590762</ele>
        <time>2021-10-23T20:22:42.442Z</time>
      </trkpt>
      <trkpt lat="47.57758" lon="2.0119429">
        <ele>122.95661057243231</ele>
        <time>2021-10-23T20:22:45.653Z</time>
      </trkpt>
      <trkpt lat="47.577507" lon="2.011905">
        <ele>123.04935214657316</ele>
        <time>2021-10-23T20:22:48.874Z</time>
      </trkpt>
      <trkpt lat="47.577065" lon="2.0118434">
        <ele>123.40187404814978</ele>
        <time>2021-10-23T20:22:52.154Z</time>
      </trkpt>
      <trkpt lat="47.576847" lon="2.0117686">
        <ele>123.72205887635911</ele>
        <time>2021-10-23T20:22:55.464Z</time>
      </trkpt>
      <trkpt lat="47.576748" lon="2.0117147">
        <ele>124.0285170095813</ele>
        <time>2021-10-23T20:22:58.788Z</time>
      </trkpt>
      <trkpt lat="47.576633" lon="2.0117192">
        <ele>124.34212830006206</ele>
        <time>2021-10-23T20:23:02.128Z</time>
      </trkpt>
      <trkpt lat="47.576546" lon="2.0116436">
        <ele>124.69339066979738</ele>
        <time>2021-10-23T20:23:05.481Z</time>
      </trkpt>
      <trkpt lat="47.576443" lon="2.0115836">
        <ele>125.06131043077104</ele>
        <time>2021-10-23T20:23:08.849Z</time>
      </trkpt>
      <trkpt lat="47.57635" lon="2.0115564">
        <ele>125.41703745532621</ele>
        <time>2021-10-23T20:23:12.230Z</time>
      </trkpt>
      <trkpt lat="47.576305" lon="2.0115645">
        <ele>125.78341195161867</ele>
        <time>2021-10-23T20:23:15.617Z</time>
      </trkpt>
      <trkpt lat="47.576176" lon="2.0115008">
        <ele>126.16312768303331</ele>
        <time>2021-10-23T20:23:19.022Z</time>
      </trkpt>
      <trkpt lat="47.576057" lon="2.0113952">
        <ele>126.54311910720108</ele>
        <time>2021-10-23T20:23:22.445Z</time>
      </trkpt>
      <trkpt lat="47.575863" lon="2.0112863">
        <ele>126.9457106998771</ele>
        <time>2021-10-23T20:23:25.896Z</time>
      </trkpt>
      <trkpt lat="47.575626" lon="2.0109751">
        <ele>127.3886596151613</ele>
        <time>2021-10-23T20:23:29.389Z</time>
      </trkpt>
      <trkpt lat="47.57559" lon="2.0109484">
        <ele>127.8034764285413</ele>
        <time>2021-10-23T20:23:32.888Z</time>
      </trkpt>
      <trkpt lat="47.575527" lon="2.0109324">
        <ele>128.23999556289175</ele>
        <time>2021-10-23T20:23:36.395Z</time>
      </trkpt>
      <trkpt lat="47.575462" lon="2.0108488">
        <ele>128.67174773191437</ele>
        <time>2021-10-23T20:23:39.914Z</time>
      </trkpt>
      <trkpt lat="47.575344" lon="2.0107527">
        <ele>129.13213142223066</ele>
        <time>2021-10-23T20:23:43.451Z</time>
      </trkpt>
      <trkpt lat="47.575268" lon="2.010668">
        <ele>129.5883856945382</ele>
        <time>2021-10-23T20:23:47.000Z</time>
      </trkpt>
      <trkpt lat="47.57521" lon="2.0106428">
        <ele>130.04621511048552</ele>
        <time>2021-10-23T20:23:50.557Z</time>
      </trkpt>
      <trkpt lat="47.57488" lon="2.010224">
        <ele>130.57161313883694</ele>
        <time>2021-10-23T20:23:54.172Z</time>
      </trkpt>
      <trkpt lat="47.57469" lon="2.010058">
        <ele>131.0448311026528</ele>
        <time>2021-10-23T20:23:57.817Z</time>
      </trkpt>
      <trkpt lat="47.574673" lon="2.0100243">
        <ele>131.48018908694183</ele>
        <time>2021-10-23T20:24:01.466Z</time>
      </trkpt>
      <trkpt lat="47.5745" lon="2.009864">
        <ele>131.9442620354697</ele>
        <time>2021-10-23T20:24:05.142Z</time>
      </trkpt>
      <trkpt lat="47.574448" lon="2.0097845">
        <ele>132.37816469576074</ele>
        <time>2021-10-23T20:24:08.828Z</time>
      </trkpt>
      <trkpt lat="47.574375" lon="2.0097342">
        <ele>132.81562268769704</ele>
        <time>2021-10-23T20:24:12.525Z</time>
      </trkpt>
      <trkpt lat="47.574257" lon="2.0096111">
        <ele>133.2525266266436</ele>
        <time>2021-10-23T20:24:16.241Z</time>
      </trkpt>
      <trkpt lat="47.57407" lon="2.0093884">
        <ele>133.71118241709337</ele>
        <time>2021-10-23T20:24:19.989Z</time>
      </trkpt>
      <trkpt lat="47.573917" lon="2.0092854">
        <ele>134.16774085489885</ele>
        <time>2021-10-23T20:24:23.759Z</time>
      </trkpt>
      <trkpt lat="47.573883" lon="2.009229">
        <ele>134.55792369948466</ele>
        <time>2021-10-23T20:24:27.536Z</time>
      </trkpt>
      <trkpt lat="47.57383" lon="2.0091896">
        <ele>134.93991783003747</ele>
        <time>2021-10-23T20:24:31.321Z</time>
      </trkpt>
      <trkpt lat="47.573822" lon="2.0091627">
        <ele>135.28073995991468</ele>
        <time>2021-10-23T20:24:35.109Z</time>
      </trkpt>
      <trkpt lat="47.57367" lon="2.0090327">
        <ele>135.658918138501</ele>
        <time>2021-10-23T20:24:38.920Z</time>
      </trkpt>
      <trkpt lat="47.573524" lon="2.0088365">
        <ele>136.01242258480147</ele>
        <time>2021-10-23T20:24:42.758Z</time>
      </trkpt>
      <trkpt lat="47.57345" lon="2.0087693">
        <ele>136.29888611364618</ele>
        <time>2021-10-23T20:24:46.607Z</time>
      </trkpt>
      <trkpt lat="47.573357" lon="2.0087183">
        <ele>136.5570271399606</ele>
        <time>2021-10-23T20:24:50.469Z</time>
      </trkpt>
      <trkpt lat="47.573284" lon="2.008594">
        <ele>136.7377925876604</ele>
        <time>2021-10-23T20:24:54.346Z</time>
      </trkpt>
      <trkpt lat="47.573273" lon="2.0085878">
        <ele>136.8735037815136</ele>
        <time>2021-10-23T20:24:58.225Z</time>
      </trkpt>
      <trkpt lat="47.57325" lon="2.008629">
        <ele>136.9702106471227</ele>
        <time>2021-10-23T20:25:02.109Z</time>
      </trkpt>
      <trkpt lat="47.57324" lon="2.0086243">
        <ele>137.02983586555573</ele>
        <time>2021-10-23T20:25:05.994Z</time>
      </trkpt>
      <trkpt lat="47.573284" lon="2.0085664">
        <ele>137.05515189823475</ele>
        <time>2021-10-23T20:25:09.887Z</time>
      </trkpt>
      <trkpt lat="47.57325" lon="2.0085514">
        <ele>137.04966617954443</ele>
        <time>2021-10-23T20:25:13.785Z</time>
      </trkpt>
      <trkpt lat="47.573196" lon="2.0085616">
        <ele>137.01752064221986</ele>
        <time>2021-10-23T20:25:17.690Z</time>
      </trkpt>
      <trkpt lat="47.573048" lon="2.008342">
        <ele>136.96340467270363</ele>
        <time>2021-10-23T20:25:21.623Z</time>
      </trkpt>
      <trkpt lat="47.572998" lon="2.0083082">
        <ele>136.89247972877132</ele>
        <time>2021-10-23T20:25:25.563Z</time>
      </trkpt>
      <trkpt lat="47.57298" lon="2.0082743">
        <ele>136.81031310382383</ele>
        <time>2021-10-23T20:25:29.507Z</time>
      </trkpt>
      <trkpt lat="47.572895" lon="2.008224">
        <ele>136.7177608282098</ele>
        <time>2021-10-23T20:25:33.463Z</time>
      </trkpt>
      <trkpt lat="47.572605" lon="2.0079873">
        <ele>136.58765180176906</ele>
        <time>2021-10-23T20:25:37.463Z</time>
      </trkpt>
      <trkpt lat="47.572575" lon="2.007939">
        <ele>136.50082746209864</ele>
        <time>2021-10-23T20:25:41.469Z</time>
      </trkpt>
      <trkpt lat="47.572536" lon="2.0079148">
        <ele>136.39032043092345</ele>
        <time>2021-10-23T20:25:45.481Z</time>
      </trkpt>
      <trkpt lat="47.572475" lon="2.0078197">
        <ele>136.35848785154207</ele>
        <time>2021-10-23T20:25:49.505Z</time>
      </trkpt>
      <trkpt lat="47.572388" lon="2.0077555">
        <ele>136.36653496752058</ele>
        <time>2021-10-23T20:25:53.542Z</time>
      </trkpt>
      <trkpt lat="47.57233" lon="2.0076838">
        <ele>136.40335899291637</ele>
        <time>2021-10-23T20:25:57.589Z</time>
      </trkpt>
      <trkpt lat="47.572243" lon="2.007632">
        <ele>136.48158585719426</ele>
        <time>2021-10-23T20:26:01.648Z</time>
      </trkpt>
      <trkpt lat="47.5722" lon="2.007636">
        <ele>136.60189650433378</ele>
        <time>2021-10-23T20:26:05.713Z</time>
      </trkpt>
      <trkpt lat="47.572067" lon="2.0074584">
        <ele>136.73213831627228</ele>
        <time>2021-10-23T20:26:09.802Z</time>
      </trkpt>
      <trkpt lat="47.571827" lon="2.0072334">
        <ele>136.9311534517471</ele>
        <time>2021-10-23T20:26:13.929Z</time>
      </trkpt>
      <trkpt lat="47.571655" lon="2.0070198">
        <ele>137.16745663027453</ele>
        <time>2021-10-23T20:26:18.086Z</time>
      </trkpt>
      <trkpt lat="47.571598" lon="2.0069792">
        <ele>137.425756234302</ele>
        <time>2021-10-23T20:26:22.251Z</time>
      </trkpt>
      <trkpt lat="47.571487" lon="2.006819">
        <ele>137.71998774533978</ele>
        <time>2021-10-23T20:26:26.437Z</time>
      </trkpt>
      <trkpt lat="47.571377" lon="2.006716">
        <ele>138.0206208767083</ele>
        <time>2021-10-23T20:26:30.641Z</time>
      </trkpt>
      <trkpt lat="47.57122" lon="2.0066125">
        <ele>138.33523874594255</ele>
        <time>2021-10-23T20:26:34.867Z</time>
      </trkpt>
      <trkpt lat="47.571125" lon="2.0064952">
        <ele>138.60441778714574</ele>
        <time>2021-10-23T20:26:39.110Z</time>
      </trkpt>
      <trkpt lat="47.570984" lon="2.0063798">
        <ele>138.86381753106554</ele>
        <time>2021-10-23T20:26:43.374Z</time>
      </trkpt>
      <trkpt lat="47.57091" lon="2.0062838">
        <ele>139.06610280593168</ele>
        <time>2021-10-23T20:26:47.652Z</time>
      </trkpt>
      <trkpt lat="47.57086" lon="2.00627">
        <ele>139.22461843457182</ele>
        <time>2021-10-23T20:26:51.936Z</time>
      </trkpt>
      <trkpt lat="47.57079" lon="2.0061698">
        <ele>139.31762285388226</ele>
        <time>2021-10-23T20:26:56.233Z</time>
      </trkpt>
      <trkpt lat="47.570618" lon="2.006029">
        <ele>139.35744655463998</ele>
        <time>2021-10-23T20:27:00.557Z</time>
      </trkpt>
      <trkpt lat="47.570557" lon="2.005942">
        <ele>139.33331276266694</ele>
        <time>2021-10-23T20:27:04.892Z</time>
      </trkpt>
      <trkpt lat="47.570477" lon="2.005888">
        <ele>139.25309427233657</ele>
        <time>2021-10-23T20:27:09.239Z</time>
      </trkpt>
      <trkpt lat="47.5704" lon="2.0057995">
        <ele>139.10779449260053</ele>
        <time>2021-10-23T20:27:13.599Z</time>
      </trkpt>
      <trkpt lat="47.57035" lon="2.0057764">
        <ele>138.90543308364474</ele>
        <time>2021-10-23T20:27:17.966Z</time>
      </trkpt>
      <trkpt lat="47.570297" lon="2.0056922">
        <ele>138.6235660616892</ele>
        <time>2021-10-23T20:27:22.343Z</time>
      </trkpt>
      <trkpt lat="47.570175" lon="2.0056">
        <ele>138.28542784867125</ele>
        <time>2021-10-23T20:27:26.738Z</time>
      </trkpt>
      <trkpt lat="47.570038" lon="2.0054553">
        <ele>137.8838156399557</ele>
        <time>2021-10-23T20:27:31.156Z</time>
      </trkpt>
      <trkpt lat="47.569992" lon="2.00543">
        <ele>137.46877514608863</ele>
        <time>2021-10-23T20:27:35.580Z</time>
      </trkpt>
      <trkpt lat="47.569695" lon="2.005064">
        <ele>136.7466433266488</ele>
        <time>2021-10-23T20:27:40.056Z</time>
      </trkpt>
      <trkpt lat="47.569683" lon="2.0050826">
        <ele>136.3169884991621</ele>
        <time>2021-10-23T20:27:44.534Z</time>
      </trkpt>
      <trkpt lat="47.569702" lon="2.0051389">
        <ele>135.9205588067889</ele>
        <time>2021-10-23T20:27:49.018Z</time>
      </trkpt>
      <trkpt lat="47.56972" lon="2.0051074">
        <ele>135.4998811311446</ele>
        <time>2021-10-23T20:27:53.506Z</time>
      </trkpt>
      <trkpt lat="47.569702" lon="2.0050588">
        <ele>135.06787639820772</ele>
        <time>2021-10-23T20:27:57.999Z</time>
      </trkpt>
      <trkpt lat="47.569626" lon="2.0050058">
        <ele>134.62303681965565</ele>
        <time>2021-10-23T20:28:02.503Z</time>
      </trkpt>
      <trkpt lat="47.56964" lon="2.0050292">
        <ele>134.2828393795172</ele>
        <time>2021-10-23T20:28:07.010Z</time>
      </trkpt>
      <trkpt lat="47.569656" lon="2.0050323">
        <ele>133.96527111382932</ele>
        <time>2021-10-23T20:28:11.519Z</time>
      </trkpt>
      <trkpt lat="47.569603" lon="2.0049713">
        <ele>133.61636681260416</ele>
        <time>2021-10-23T20:28:16.037Z</time>
      </trkpt>
      <trkpt lat="47.5696" lon="2.004983">
        <ele>133.35480496073876</ele>
        <time>2021-10-23T20:28:20.556Z</time>
      </trkpt>
      <trkpt lat="47.569557" lon="2.004968">
        <ele>133.0941629273354</ele>
        <time>2021-10-23T20:28:25.081Z</time>
      </trkpt>
      <trkpt lat="47.569427" lon="2.0050323">
        <ele>132.84763633809632</ele>
        <time>2021-10-23T20:28:29.624Z</time>
      </trkpt>
      <trkpt lat="47.569336" lon="2.005052">
        <ele>132.63899846547645</ele>
        <time>2021-10-23T20:28:34.179Z</time>
      </trkpt>
      <trkpt lat="47.569366" lon="2.0050967">
        <ele>132.53769373524932</ele>
        <time>2021-10-23T20:28:38.740Z</time>
      </trkpt>
      <trkpt lat="47.569355" lon="2.0051143">
        <ele>132.43174221017253</ele>
        <time>2021-10-23T20:28:43.303Z</time>
      </trkpt>
      <trkpt lat="47.56928" lon="2.005137">
        <ele>132.32044806147758</ele>
        <time>2021-10-23T20:28:47.876Z</time>
      </trkpt>
      <trkpt lat="47.569134" lon="2.0052562">
        <ele>132.25742926088645</ele>
        <time>2021-10-23T20:28:52.472Z</time>
      </trkpt>
      <trkpt lat="47.56901" lon="2.0053048">
        <ele>132.2179958027712</ele>
        <time>2021-10-23T20:28:57.085Z</time>
      </trkpt>
      <trkpt lat="47.568954" lon="2.0053499">
        <ele>132.1789068875618</ele>
        <time>2021-10-23T20:29:01.706Z</time>
      </trkpt>
      <trkpt lat="47.56884" lon="2.0053697">
        <ele>132.12279764103747</ele>
        <time>2021-10-23T20:29:06.343Z</time>
      </trkpt>
      <trkpt lat="47.56879" lon="2.0054054">
        <ele>132.050265061476</ele>
        <time>2021-10-23T20:29:10.987Z</time>
      </trkpt>
      <trkpt lat="47.568684" lon="2.0054142">
        <ele>131.92799169469924</ele>
        <time>2021-10-23T20:29:15.645Z</time>
      </trkpt>
      <trkpt lat="47.56862" lon="2.005463">
        <ele>131.8035337179899</ele>
        <time>2021-10-23T20:29:20.313Z</time>
      </trkpt>
      <trkpt lat="47.568447" lon="2.0055165">
        <ele>131.6253293046982</ele>
        <time>2021-10-23T20:29:25.004Z</time>
      </trkpt>
      <trkpt lat="47.568333" lon="2.0055928">
        <ele>131.4427508089558</ele>
        <time>2021-10-23T20:29:29.712Z</time>
      </trkpt>
      <trkpt lat="47.56824" lon="2.0056224">
        <ele>131.23744373460875</ele>
        <time>2021-10-23T20:29:34.433Z</time>
      </trkpt>
      <trkpt lat="47.568153" lon="2.0056903">
        <ele>131.0000500838045</ele>
        <time>2021-10-23T20:29:39.167Z</time>
      </trkpt>
      <trkpt lat="47.568005" lon="2.0057392">
        <ele>130.7138776974159</ele>
        <time>2021-10-23T20:29:43.921Z</time>
      </trkpt>
      <trkpt lat="47.567772" lon="2.005873">
        <ele>130.40806233180808</ele>
        <time>2021-10-23T20:29:48.709Z</time>
      </trkpt>
      <trkpt lat="47.567577" lon="2.0059514">
        <ele>130.0751588779263</ele>
        <time>2021-10-23T20:29:53.524Z</time>
      </trkpt>
      <trkpt lat="47.56755" lon="2.0059853">
        <ele>129.75451358847758</ele>
        <time>2021-10-23T20:29:58.343Z</time>
      </trkpt>
      <trkpt lat="47.56744" lon="2.0060582">
        <ele>129.40184527275466</ele>
        <time>2021-10-23T20:30:03.178Z</time>
      </trkpt>
      <trkpt lat="47.56719" lon="2.00616">
        <ele>129.0016093328577</ele>
        <time>2021-10-23T20:30:08.048Z</time>
      </trkpt>
      <trkpt lat="47.56705" lon="2.0061784">
        <ele>128.5862604170656</ele>
        <time>2021-10-23T20:30:12.937Z</time>
      </trkpt>
      <trkpt lat="47.56698" lon="2.0062456">
        <ele>128.1817100117055</ele>
        <time>2021-10-23T20:30:17.837Z</time>
      </trkpt>
      <trkpt lat="47.566856" lon="2.0062962">
        <ele>127.74880641075376</ele>
        <time>2021-10-23T20:30:22.754Z</time>
      </trkpt>
      <trkpt lat="47.566784" lon="2.0063558">
        <ele>127.34477171195708</ele>
        <time>2021-10-23T20:30:27.682Z</time>
      </trkpt>
      <trkpt lat="47.56671" lon="2.006375">
        <ele>126.94539094641863</ele>
        <time>2021-10-23T20:30:32.620Z</time>
      </trkpt>
      <trkpt lat="47.56657" lon="2.0064752">
        <ele>126.57738605390549</ele>
        <time>2021-10-23T20:30:37.579Z</time>
      </trkpt>
      <trkpt lat="47.56607" lon="2.006649">
        <ele>125.79022746084394</ele>
        <time>2021-10-23T20:30:42.606Z</time>
      </trkpt>
      <trkpt lat="47.565994" lon="2.006688">
        <ele>125.491619355635</ele>
        <time>2021-10-23T20:30:47.644Z</time>
      </trkpt>
      <trkpt lat="47.565975" lon="2.006714">
        <ele>125.24020415620674</ele>
        <time>2021-10-23T20:30:52.685Z</time>
      </trkpt>
      <trkpt lat="47.565903" lon="2.0067348">
        <ele>125.00704944367521</ele>
        <time>2021-10-23T20:30:57.736Z</time>
      </trkpt>
      <trkpt lat="47.565548" lon="2.006932">
        <ele>124.8272123424845</ele>
        <time>2021-10-23T20:31:02.838Z</time>
      </trkpt>
      <trkpt lat="47.56548" lon="2.0069468">
        <ele>124.67801480587129</ele>
        <time>2021-10-23T20:31:07.949Z</time>
      </trkpt>
      <trkpt lat="47.56542" lon="2.0069897">
        <ele>124.5597350307553</ele>
        <time>2021-10-23T20:31:13.069Z</time>
      </trkpt>
      <trkpt lat="47.565357" lon="2.0069966">
        <ele>124.46255142287433</ele>
        <time>2021-10-23T20:31:18.197Z</time>
      </trkpt>
      <trkpt lat="47.56524" lon="2.007052">
        <ele>124.38982253314653</ele>
        <time>2021-10-23T20:31:23.342Z</time>
      </trkpt>
      <trkpt lat="47.5652" lon="2.0070534">
        <ele>124.32713185271129</ele>
        <time>2021-10-23T20:31:28.492Z</time>
      </trkpt>
      <trkpt lat="47.56506" lon="2.0071533">
        <ele>124.28352210729614</ele>
        <time>2021-10-23T20:31:33.663Z</time>
      </trkpt>
      <trkpt lat="47.564857" lon="2.0071933">
        <ele>124.22490575840399</ele>
        <time>2021-10-23T20:31:38.861Z</time>
      </trkpt>
      <trkpt lat="47.564724" lon="2.0072563">
        <ele>124.17061603448508</ele>
        <time>2021-10-23T20:31:44.078Z</time>
      </trkpt>
      <trkpt lat="47.564594" lon="2.007286">
        <ele>124.10946777584869</ele>
        <time>2021-10-23T20:31:49.312Z</time>
      </trkpt>
      <trkpt lat="47.56456" lon="2.007314">
        <ele>124.049053655897</ele>
        <time>2021-10-23T20:31:54.552Z</time>
      </trkpt>
      <trkpt lat="47.56452" lon="2.007314">
        <ele>123.97379774702665</ele>
        <time>2021-10-23T20:31:59.797Z</time>
      </trkpt>
      <trkpt lat="47.56435" lon="2.0073807">
        <ele>123.87785605089778</ele>
        <time>2021-10-23T20:32:05.065Z</time>
      </trkpt>
      <trkpt lat="47.56422" lon="2.0074096">
        <ele>123.76489179252965</ele>
        <time>2021-10-23T20:32:10.351Z</time>
      </trkpt>
      <trkpt lat="47.56407" lon="2.007489">
        <ele>123.63576359635549</ele>
        <time>2021-10-23T20:32:15.658Z</time>
      </trkpt>
      <trkpt lat="47.56378" lon="2.007557">
        <ele>123.47254874151608</ele>
        <time>2021-10-23T20:32:21.004Z</time>
      </trkpt>
      <trkpt lat="47.56346" lon="2.0076787">
        <ele>123.27799715011912</ele>
        <time>2021-10-23T20:32:26.394Z</time>
      </trkpt>
      <trkpt lat="47.56335" lon="2.0077372">
        <ele>123.07556514204546</ele>
        <time>2021-10-23T20:32:31.800Z</time>
      </trkpt>
      <trkpt lat="47.56331" lon="2.007739">
        <ele>122.87095358207023</ele>
        <time>2021-10-23T20:32:37.211Z</time>
      </trkpt>
      <trkpt lat="47.563225" lon="2.0077868">
        <ele>122.64539417822371</ele>
        <time>2021-10-23T20:32:42.634Z</time>
      </trkpt>
      <trkpt lat="47.563168" lon="2.0077925">
        <ele>122.40658585799505</ele>
        <time>2021-10-23T20:32:48.065Z</time>
      </trkpt>
      <trkpt lat="47.563023" lon="2.007851">
        <ele>122.14579958769235</ele>
        <time>2021-10-23T20:32:53.516Z</time>
      </trkpt>
      <trkpt lat="47.562904" lon="2.007878">
        <ele>121.87023977631762</ele>
        <time>2021-10-23T20:32:58.983Z</time>
      </trkpt>
      <trkpt lat="47.56281" lon="2.0079238">
        <ele>121.58286365884348</ele>
        <time>2021-10-23T20:33:04.463Z</time>
      </trkpt>
      <trkpt lat="47.562714" lon="2.0079434">
        <ele>121.29451654063294</ele>
        <time>2021-10-23T20:33:09.956Z</time>
      </trkpt>
      <trkpt lat="47.562534" lon="2.008061">
        <ele>120.9834925064844</ele>
        <time>2021-10-23T20:33:15.476Z</time>
      </trkpt>
      <trkpt lat="47.562477" lon="2.008061">
        <ele>120.71386250003481</ele>
        <time>2021-10-23T20:33:21.003Z</time>
      </trkpt>
      <trkpt lat="47.56229" lon="2.0081198">
        <ele>120.42784113314875</ele>
        <time>2021-10-23T20:33:26.556Z</time>
      </trkpt>
      <trkpt lat="47.562084" lon="2.008159">
        <ele>120.15927312070585</ele>
        <time>2021-10-23T20:33:32.136Z</time>
      </trkpt>
      <trkpt lat="47.561974" lon="2.008242">
        <ele>119.92941221451443</ele>
        <time>2021-10-23T20:33:37.733Z</time>
      </trkpt>
      <trkpt lat="47.5618" lon="2.0082994">
        <ele>119.72887077184006</ele>
        <time>2021-10-23T20:33:43.354Z</time>
      </trkpt>
      <trkpt lat="47.561638" lon="2.0083208">
        <ele>119.56934550103708</ele>
        <time>2021-10-23T20:33:48.996Z</time>
      </trkpt>
      <trkpt lat="47.561535" lon="2.0083523">
        <ele>119.45489337220891</ele>
        <time>2021-10-23T20:33:54.652Z</time>
      </trkpt>
      <trkpt lat="47.56143" lon="2.0084176">
        <ele>119.38432844985421</ele>
        <time>2021-10-23T20:34:00.324Z</time>
      </trkpt>
      <trkpt lat="47.56135" lon="2.0085256">
        <ele>119.36403879464494</ele>
        <time>2021-10-23T20:34:06.010Z</time>
      </trkpt>
      <trkpt lat="47.561367" lon="2.0086567">
        <ele>119.40171806760128</ele>
        <time>2021-10-23T20:34:11.708Z</time>
      </trkpt>
      <trkpt lat="47.561424" lon="2.0087447">
        <ele>119.47080405588893</ele>
        <time>2021-10-23T20:34:17.417Z</time>
      </trkpt>
      <trkpt lat="47.561478" lon="2.008791">
        <ele>119.55900375740174</ele>
        <time>2021-10-23T20:34:23.134Z</time>
      </trkpt>
      <trkpt lat="47.561478" lon="2.0088296">
        <ele>119.65830549832363</ele>
        <time>2021-10-23T20:34:28.855Z</time>
      </trkpt>
      <trkpt lat="47.561535" lon="2.0089133">
        <ele>119.79407715168637</ele>
        <time>2021-10-23T20:34:34.587Z</time>
      </trkpt>
      <trkpt lat="47.56163" lon="2.0090113">
        <ele>119.95148134709186</ele>
        <time>2021-10-23T20:34:40.334Z</time>
      </trkpt>
      <trkpt lat="47.561737" lon="2.0091743">
        <ele>120.0936320460107</ele>
        <time>2021-10-23T20:34:46.102Z</time>
      </trkpt>
      <trkpt lat="47.561825" lon="2.0092552">
        <ele>120.2254643126114</ele>
        <time>2021-10-23T20:34:51.883Z</time>
      </trkpt>
      <trkpt lat="47.561935" lon="2.009421">
        <ele>120.3382237770393</ele>
        <time>2021-10-23T20:34:57.685Z</time>
      </trkpt>
      <trkpt lat="47.561962" lon="2.0094285">
        <ele>120.46782067837098</ele>
        <time>2021-10-23T20:35:03.491Z</time>
      </trkpt>
      <trkpt lat="47.562077" lon="2.0095568">
        <ele>120.58167684938036</ele>
        <time>2021-10-23T20:35:09.316Z</time>
      </trkpt>
      <trkpt lat="47.562244" lon="2.009667">
        <ele>120.70642364556855</ele>
        <time>2021-10-23T20:35:15.166Z</time>
      </trkpt>
      <trkpt lat="47.562294" lon="2.0097194">
        <ele>120.80408208261406</ele>
        <time>2021-10-23T20:35:21.024Z</time>
      </trkpt>
      <trkpt lat="47.56235" lon="2.0097425">
        <ele>120.89692976658462</ele>
        <time>2021-10-23T20:35:26.890Z</time>
      </trkpt>
      <trkpt lat="47.56239" lon="2.009733">
        <ele>120.97518060143467</ele>
        <time>2021-10-23T20:35:32.761Z</time>
      </trkpt>
      <trkpt lat="47.56246" lon="2.0097897">
        <ele>121.03670172855942</ele>
        <time>2021-10-23T20:35:38.643Z</time>
      </trkpt>
      <trkpt lat="47.562523" lon="2.009795">
        <ele>121.08887042092809</ele>
        <time>2021-10-23T20:35:44.533Z</time>
      </trkpt>
      <trkpt lat="47.562614" lon="2.009847">
        <ele>121.12598823474312</ele>
        <time>2021-10-23T20:35:50.436Z</time>
      </trkpt>
      <trkpt lat="47.562653" lon="2.0098524">
        <ele>121.14986587049802</ele>
        <time>2021-10-23T20:35:56.344Z</time>
      </trkpt>
      <trkpt lat="47.56271" lon="2.0099022">
        <ele>121.15951775954106</ele>
        <time>2021-10-23T20:36:02.261Z</time>
      </trkpt>
      <trkpt lat="47.56274" lon="2.0099516">
        <ele>121.15938669684749</ele>
        <time>2021-10-23T20:36:08.184Z</time>
      </trkpt>
      <trkpt lat="47.562798" lon="2.0099802">
        <ele>121.15461041165196</ele>
        <time>2021-10-23T20:36:14.115Z</time>
      </trkpt>
      <trkpt lat="47.562828" lon="2.0100157">
        <ele>121.14036074442646</ele>
        <time>2021-10-23T20:36:20.052Z</time>
      </trkpt>
      <trkpt lat="47.562943" lon="2.010064">
        <ele>121.12937089786749</ele>
        <time>2021-10-23T20:36:26.004Z</time>
      </trkpt>
      <trkpt lat="47.563023" lon="2.0100813">
        <ele>121.11287013215926</ele>
        <time>2021-10-23T20:36:31.967Z</time>
      </trkpt>
      <trkpt lat="47.563034" lon="2.0100718">
        <ele>121.09068835976773</ele>
        <time>2021-10-23T20:36:37.932Z</time>
      </trkpt>
      <trkpt lat="47.563057" lon="2.0101006">
        <ele>121.0739622829807</ele>
        <time>2021-10-23T20:36:43.901Z</time>
      </trkpt>
      <trkpt lat="47.563103" lon="2.0100996">
        <ele>121.06765575790595</ele>
        <time>2021-10-23T20:36:49.876Z</time>
      </trkpt>
      <trkpt lat="47.563095" lon="2.0100753">
        <ele>121.06892404049935</ele>
        <time>2021-10-23T20:36:55.854Z</time>
      </trkpt>
      <trkpt lat="47.56314" lon="2.010126">
        <ele>121.09250312086726</ele>
        <time>2021-10-23T20:37:01.839Z</time>
      </trkpt>
      <trkpt lat="47.563183" lon="2.010145">
        <ele>121.13810800165979</ele>
        <time>2021-10-23T20:37:07.830Z</time>
      </trkpt>
      <trkpt lat="47.563194" lon="2.0101757">
        <ele>121.20802085138114</ele>
        <time>2021-10-23T20:37:13.824Z</time>
      </trkpt>
      <trkpt lat="47.563206" lon="2.010171">
        <ele>121.31053845768852</ele>
        <time>2021-10-23T20:37:19.820Z</time>
      </trkpt>
      <trkpt lat="47.563134860247374" lon="2.010175595059991">
        <ele>121.62442494675614</ele>
        <time>2021-10-23T20:37:25.825Z</time>
      </trkpt>
      <trkpt lat="47.56312966346741" lon="2.0099937915802">
        <ele>121.85244978458391</ele>
        <time>2021-10-23T20:37:31.847Z</time>
      </trkpt>
      <trkpt lat="47.5622284412384" lon="2.0095324516296387">
        <ele>122.08375047792008</ele>
        <time>2021-10-23T20:37:37.996Z</time>
      </trkpt>
      <trkpt lat="47.56181001663208" lon="2.0091354846954346">
        <ele>122.4158125595917</ele>
        <time>2021-10-23T20:37:44.211Z</time>
      </trkpt>
      <trkpt lat="47.5612735748291" lon="2.008545398712158">
        <ele>122.62238764206184</ele>
        <time>2021-10-23T20:37:50.516Z</time>
      </trkpt>
      <trkpt lat="47.5613272190094" lon="2.008470296859741">
        <ele>123.06929171113212</ele>
        <time>2021-10-23T20:37:56.831Z</time>
      </trkpt>
      <trkpt lat="47.561466693878174" lon="2.0083630084991455">
        <ele>123.57532598141461</ele>
        <time>2021-10-23T20:38:03.166Z</time>
      </trkpt>
      <trkpt lat="47.56161689758301" lon="2.0083200931549072">
        <ele>124.1304360333076</ele>
        <time>2021-10-23T20:38:09.522Z</time>
      </trkpt>
      <trkpt lat="47.56483554840088" lon="2.007225751876831">
        <ele>125.10605650083562</ele>
        <time>2021-10-23T20:38:16.319Z</time>
      </trkpt>
      <trkpt lat="47.56549000740051" lon="2.0069468021392822">
        <ele>125.60660808559908</ele>
        <time>2021-10-23T20:38:23.206Z</time>
      </trkpt>
      <trkpt lat="47.56732472218573" lon="2.0060670375823975">
        <ele>126.45658829014835</ele>
        <time>2021-10-23T20:38:30.351Z</time>
      </trkpt>
      <trkpt lat="47.5673246383667" lon="2.0060670375823975">
        <ele>126.81824567814385</ele>
        <time>2021-10-23T20:38:37.496Z</time>
      </trkpt>
      <trkpt lat="47.56857991218567" lon="2.0054662227630615">
        <ele>127.28318416194307</ele>
        <time>2021-10-23T20:38:44.817Z</time>
      </trkpt>
      <trkpt lat="47.56950259208679" lon="2.0049726963043213">
        <ele>127.43806713578871</ele>
        <time>2021-10-23T20:38:52.269Z</time>
      </trkpt>
      <trkpt lat="47.56958842277527" lon="2.004983425140381">
        <ele>127.4752596844524</ele>
        <time>2021-10-23T20:38:59.732Z</time>
      </trkpt>
      <trkpt lat="47.57232427597046" lon="2.007730007171631">
        <ele>127.5317301560935</ele>
        <time>2021-10-23T20:39:07.637Z</time>
      </trkpt>
      <trkpt lat="47.576197385787964" lon="2.0115387439727783">
        <ele>126.55084211202082</ele>
        <time>2021-10-23T20:39:16.162Z</time>
      </trkpt>
      <trkpt lat="47.57630467414856" lon="2.0115816593170166">
        <ele>126.20339746260714</ele>
        <time>2021-10-23T20:39:24.702Z</time>
      </trkpt>
      <trkpt lat="47.58151888847351" lon="2.0129120349884033">
        <ele>125.35288421384162</ele>
        <time>2021-10-23T20:39:33.948Z</time>
      </trkpt>
      <trkpt lat="47.5838577747345" lon="2.013523578643799">
        <ele>125.1765864269764</ele>
        <time>2021-10-23T20:39:43.511Z</time>
      </trkpt>
      <trkpt lat="47.58555293083191" lon="2.014521360397339">
        <ele>124.47396261785434</ele>
        <time>2021-10-23T20:39:53.317Z</time>
      </trkpt>
      <trkpt lat="47.58607864379883" lon="2.0147788524627686">
        <ele>124.04657169494439</ele>
        <time>2021-10-23T20:40:03.197Z</time>
      </trkpt>
      <trkpt lat="47.58835315704346" lon="2.0155513286590576">
        <ele>123.83942707784665</ele>
        <time>2021-10-23T20:40:13.389Z</time>
      </trkpt>
      <trkpt lat="47.58854627609253" lon="2.015637159347534">
        <ele>123.63498684444235</ele>
        <time>2021-10-23T20:40:23.608Z</time>
      </trkpt>
      <trkpt lat="47.58856773376465" lon="2.015594244003296">
        <ele>123.44947038714207</ele>
        <time>2021-10-23T20:40:33.831Z</time>
      </trkpt>
      <trkpt lat="47.58871793746948" lon="2.015690803527832">
        <ele>123.31957835660492</ele>
        <time>2021-10-23T20:40:44.076Z</time>
      </trkpt>
      <trkpt lat="47.58927592076361" lon="2.01623797416687">
        <ele>123.20072905176858</ele>
        <time>2021-10-23T20:40:54.411Z</time>
      </trkpt>
      <trkpt lat="47.589919567108154" lon="2.0168495178222656">
        <ele>123.0654799542412</ele>
        <time>2021-10-23T20:41:04.848Z</time>
      </trkpt>
      <trkpt lat="47.59052046574652" lon="2.01723575592041">
        <ele>123.12124892961138</ele>
        <time>2021-10-23T20:41:15.372Z</time>
      </trkpt>
      <trkpt lat="47.5908100605011" lon="2.0174074172973633">
        <ele>123.11397694660724</ele>
        <time>2021-10-23T20:41:25.938Z</time>
      </trkpt>
      <trkpt lat="47.59107836522162" lon="2.0175790786743164">
        <ele>123.0296965520219</ele>
        <time>2021-10-23T20:41:36.543Z</time>
      </trkpt>
      <trkpt lat="47.59138950146735" lon="2.0177721977233887">
        <ele>122.89297780265542</ele>
        <time>2021-10-23T20:41:47.193Z</time>
      </trkpt>
      <trkpt lat="47.59194731712341" lon="2.018115520477295">
        <ele>122.70678497925977</ele>
        <time>2021-10-23T20:41:57.923Z</time>
      </trkpt>
      <trkpt lat="47.59237655438483" lon="2.018308639526367">
        <ele>122.42995685616434</ele>
        <time>2021-10-23T20:42:08.713Z</time>
      </trkpt>
      <trkpt lat="47.59270906448364" lon="2.0184695720672607">
        <ele>122.00789181711968</ele>
        <time>2021-10-23T20:42:19.550Z</time>
      </trkpt>
      <trkpt lat="47.59283781051636" lon="2.0186305046081543">
        <ele>121.44561918213847</ele>
        <time>2021-10-23T20:42:30.409Z</time>
      </trkpt>
      <trkpt lat="47.59283789433539" lon="2.0186305046081543">
        <ele>120.81119234787099</ele>
        <time>2021-10-23T20:42:41.268Z</time>
      </trkpt>
      <trkpt lat="47.59351372718811" lon="2.0194995403289795">
        <ele>119.84459223719257</ele>
        <time>2021-10-23T20:42:52.247Z</time>
      </trkpt>
      <trkpt lat="47.59407171048224" lon="2.019939422607422">
        <ele>118.84201011144992</ele>
        <time>2021-10-23T20:43:03.310Z</time>
      </trkpt>
      <trkpt lat="47.5940824393183" lon="2.020132541656494">
        <ele>118.02961485349267</ele>
        <time>2021-10-23T20:43:14.391Z</time>
      </trkpt>
      <trkpt lat="47.594135999679565" lon="2.0214951038360596">
        <ele>116.98593189198037</ele>
        <time>2021-10-23T20:43:25.595Z</time>
      </trkpt>
      <trkpt lat="47.594189727678895" lon="2.021956443786621">
        <ele>116.12693025519907</ele>
        <time>2021-10-23T20:43:36.841Z</time>
      </trkpt>
      <trkpt lat="47.59420037269592" lon="2.0220208168029785">
        <ele>115.32721532977087</ele>
        <time>2021-10-23T20:43:48.093Z</time>
      </trkpt>
      <trkpt lat="47.594650983810425" lon="2.0219242572784424">
        <ele>114.48183748112561</ele>
        <time>2021-10-23T20:43:59.406Z</time>
      </trkpt>
      <trkpt lat="47.59533762931824" lon="2.021763324737549">
        <ele>113.70572229020037</ele>
        <time>2021-10-23T20:44:10.812Z</time>
      </trkpt>
      <trkpt lat="47.59626030921936" lon="2.021505832672119">
        <ele>112.96365520027172</ele>
        <time>2021-10-23T20:44:22.343Z</time>
      </trkpt>
      <trkpt lat="47.597193801775575" lon="2.021055221557617">
        <ele>112.23524850316599</ele>
        <time>2021-10-23T20:45:14.968Z</time>
      </trkpt>
      <trkpt lat="47.597193801775575" lon="2.021055221557617">
        <ele>110.80423332485478</ele>
        <time>2021-10-23T20:45:14.968Z</time>
      </trkpt>
      <trkpt lat="47.5972029224428" lon="2.0217219011152556">
        <ele>112.350682085029</ele>
        <time>2021-10-23T20:45:39.072Z</time>
      </trkpt>
      <trkpt lat="47.59720687621535" lon="2.022010904021755">
        <ele>111.44619690887635</ele>
        <time>2021-10-23T20:45:49.521Z</time>
      </trkpt>
      <trkpt lat="47.597480501484625" lon="2.0224478866173854">
        <ele>110.07742760255961</ele>
        <time>2021-10-23T20:46:11.077Z</time>
      </trkpt>
      <trkpt lat="47.597480501484625" lon="2.0224478866173854">
        <ele>110.07742760255961</ele>
        <time>2021-10-23T20:46:11.077Z</time>
      </trkpt>
      <trkpt lat="47.597480501484625" lon="2.0224478866173854">
        <ele>110.07742760255961</ele>
        <time>2021-10-23T20:46:11.077Z</time>
      </trkpt>
      <trkpt lat="47.597722553414314" lon="2.022697590956284">
        <ele>110.56749519216828</ele>
        <time>2021-10-23T20:46:26.418Z</time>
      </trkpt>
      <trkpt lat="47.598144940990025" lon="2.0229262910313097">
        <ele>111.79440506997159</ele>
        <time>2021-10-23T20:46:49.813Z</time>
      </trkpt>
      <trkpt lat="47.598567328565736" lon="2.0231549911063356">
        <ele>110.3742482307376</ele>
        <time>2021-10-23T20:47:13.208Z</time>
      </trkpt>
      <trkpt lat="47.598989716141446" lon="2.0233836911813614">
        <ele>109.09283624918021</ele>
        <time>2021-10-23T20:47:36.603Z</time>
      </trkpt>
      <trkpt lat="47.59927754290402" lon="2.0235395338386297">
        <ele>110.11264565214555</ele>
        <time>2021-10-23T20:47:52.545Z</time>
      </trkpt>
    </trkseg>
  </trk>
</gpx>
